Bajool, Australia
Current Conditions -  °F | °C
As of 5:00 PM on Tuesday 21 Oct 2014 (Local Time) from YBRK Reporting Station
Clear Clear  
Wind Chill: 75°   Ceiling: Unl
Heat Index: 75°   Visibility: 6mi
Dew Point: 52°   Wind: 13mph
Humidity: 44%   Direction: 80°E
Pressure: 30.15"   Gusts: NA
Location:  23.65°S, 150.64°E
Report Text: YBRK 210700Z 08011KT CAVOK 24/11 Q1021
Loading
Personal Weather Stations






























Interactive Weather Map
Tropical Storm Tracking
New forecast layout! Learn more

10-Day Weather Forecast

Advertisements
Track Severe Weather on mobile